sensor_id;sensor_type;location;lat;lon;timestamp;pressure;altitude;pressure_sealevel;temperature;humidity
65606;BME280;52276;48.906;2.384;2023-02-28T00:00:13;88103.997802734;;;6.1;38.2
65606;BME280;52276;48.906;2.384;2023-02-28T00:01:13;88103.997802734;;;6.1;38.4
65606;BME280;52276;48.906;2.384;2023-02-28T00:02:13;88103.997802734;;;6.1;38.4
65606;BME280;52276;48.906;2.384;2023-02-28T00:03:13;88103.997802734;;;6.1;38.5
65606;BME280;52276;48.906;2.384;2023-02-28T00:04:13;88103.997802734;;;6.1;38.5
65606;BME280;52276;48.906;2.384;2023-02-28T00:05:14;88103.997802734;;;6.1;38.5
65606;BME280;52276;48.906;2.384;2023-02-28T00:06:13;88103.997802734;;;6.1;38.5
65606;BME280;52276;48.906;2.384;2023-02-28T00:07:13;88103.997802734;;;6.1;38.6
65606;BME280;52276;48.906;2.384;2023-02-28T00:08:13;88103.997802734;;;6.1;38.5
65606;BME280;52276;48.906;2.384;2023-02-28T00:09:13;88103.997802734;;;6.1;38.6
65606;BME280;52276;48.906;2.384;2023-02-28T00:10:14;88103.997802734;;;6.1;38.5
65606;BME280;52276;48.906;2.384;2023-02-28T00:11:14;88103.997802734;;;6.1;38.7
65606;BME280;52276;48.906;2.384;2023-02-28T00:12:13;88103.997802734;;;6.1;38.7
65606;BME280;52276;48.906;2.384;2023-02-28T00:13:13;88103.997802734;;;6.1;38.7
65606;BME280;52276;48.906;2.384;2023-02-28T00:14:13;88103.997802734;;;6;38.7
65606;BME280;52276;48.906;2.384;2023-02-28T00:15:13;88103.997802734;;;6;38.8
65606;BME280;52276;48.906;2.384;2023-02-28T00:16:13;88103.997802734;;;6;38.7
65606;BME280;52276;48.906;2.384;2023-02-28T00:17:13;88103.997802734;;;6;39.2
65606;BME280;52276;48.906;2.384;2023-02-28T00:18:13;88103.997802734;;;6;39.1
65606;BME280;52276;48.906;2.384;2023-02-28T00:19:13;88103.997802734;;;6;39
65606;BME280;52276;48.906;2.384;2023-02-28T00:20:13;88103.997802734;;;6;38.9
65606;BME280;52276;48.906;2.384;2023-02-28T00:21:13;88103.997802734;;;6;39
65606;BME280;52276;48.906;2.384;2023-02-28T00:22:13;88103.997802734;;;6;37.7
65606;BME280;52276;48.906;2.384;2023-02-28T00:23:13;88103.997802734;;;6;39
65606;BME280;52276;48.906;2.384;2023-02-28T00:24:13;88103.997802734;;;6;37.8
65606;BME280;52276;48.906;2.384;2023-02-28T00:25:14;88103.997802734;;;6;39
65606;BME280;52276;48.906;2.384;2023-02-28T00:26:13;88103.997802734;;;6;39.1
65606;BME280;52276;48.906;2.384;2023-02-28T00:27:13;88103.997802734;;;6;39.1
65606;BME280;52276;48.906;2.384;2023-02-28T00:28:13;88103.997802734;;;5.9;39.1
65606;BME280;52276;48.906;2.384;2023-02-28T00:29:13;88103.997802734;;;5.9;39.1
65606;BME280;52276;48.906;2.384;2023-02-28T00:30:15;88103.997802734;;;5.9;39.2
65606;BME280;52276;48.906;2.384;2023-02-28T00:31:13;88103.997802734;;;5.9;39.1
65606;BME280;52276;48.906;2.384;2023-02-28T00:32:13;88103.997802734;;;5.9;39.2
65606;BME280;52276;48.906;2.384;2023-02-28T00:33:13;88103.997802734;;;5.9;39.1
65606;BME280;52276;48.906;2.384;2023-02-28T00:34:13;88103.997802734;;;5.9;39.4
65606;BME280;52276;48.906;2.384;2023-02-28T00:35:13;88103.997802734;;;5.9;39.2
65606;BME280;52276;48.906;2.384;2023-02-28T00:36:13;88103.997802734;;;5.9;39.2
65606;BME280;52276;48.906;2.384;2023-02-28T00:37:13;88103.997802734;;;5.9;39.4
65606;BME280;52276;48.906;2.384;2023-02-28T00:38:13;88103.997802734;;;5.9;39.4
65606;BME280;52276;48.906;2.384;2023-02-28T00:39:13;88103.997802734;;;5.9;39.4
65606;BME280;52276;48.906;2.384;2023-02-28T00:40:13;88103.997802734;;;5.9;37.3
65606;BME280;52276;48.906;2.384;2023-02-28T00:41:13;88103.997802734;;;5.9;39.4
65606;BME280;52276;48.906;2.384;2023-02-28T00:42:13;88103.997802734;;;5.9;39.3
65606;BME280;52276;48.906;2.384;2023-02-28T00:43:13;88103.997802734;;;5.8;39.4
65606;BME280;52276;48.906;2.384;2023-02-28T00:44:13;88103.997802734;;;5.9;37.3
65606;BME280;52276;48.906;2.384;2023-02-28T00:45:13;88103.997802734;;;5.8;39.5
65606;BME280;52276;48.906;2.384;2023-02-28T00:46:13;88103.997802734;;;5.8;39.4
65606;BME280;52276;48.906;2.384;2023-02-28T00:47:13;88103.997802734;;;5.8;39.5
65606;BME280;52276;48.906;2.384;2023-02-28T00:48:13;88103.997802734;;;5.8;37.9
65606;BME280;52276;48.906;2.384;2023-02-28T00:49:13;88103.997802734;;;5.9;39.4
65606;BME280;52276;48.906;2.384;2023-02-28T00:50:13;88103.997802734;;;5.8;39.4
65606;BME280;52276;48.906;2.384;2023-02-28T00:51:13;88103.997802734;;;5.8;39.6
65606;BME280;52276;48.906;2.384;2023-02-28T00:52:13;88103.997802734;;;5.8;39.6
65606;BME280;52276;48.906;2.384;2023-02-28T00:53:13;88103.997802734;;;5.8;39.6
65606;BME280;52276;48.906;2.384;2023-02-28T00:54:13;88103.997802734;;;5.8;39.6
65606;BME280;52276;48.906;2.384;2023-02-28T00:55:13;88103.997802734;;;5.8;39.6
65606;BME280;52276;48.906;2.384;2023-02-28T00:56:13;88103.997802734;;;5.8;39.6
65606;BME280;52276;48.906;2.384;2023-02-28T00:57:13;88103.997802734;;;5.8;39.6
65606;BME280;52276;48.906;2.384;2023-02-28T00:58:18;88103.997802734;;;5.8;39.7
65606;BME280;52276;48.906;2.384;2023-02-28T00:59:14;88103.997802734;;;5.7;39.7
65606;BME280;52276;48.906;2.384;2023-02-28T01:00:13;88103.997802734;;;5.8;39.7
65606;BME280;52276;48.906;2.384;2023-02-28T01:01:13;88103.997802734;;;5.7;39.8
65606;BME280;52276;48.906;2.384;2023-02-28T01:02:13;88103.997802734;;;5.8;40
65606;BME280;52276;48.906;2.384;2023-02-28T01:03:13;88103.997802734;;;5.7;39.8
65606;BME280;52276;48.906;2.384;2023-02-28T01:04:13;88103.997802734;;;5.7;39.8
65606;BME280;52276;48.906;2.384;2023-02-28T01:05:13;88103.997802734;;;5.7;39.8
65606;BME280;52276;48.906;2.384;2023-02-28T01:06:13;88103.997802734;;;5.7;39.8
65606;BME280;52276;48.906;2.384;2023-02-28T01:07:13;88103.997802734;;;5.7;39.8
65606;BME280;52276;48.906;2.384;2023-02-28T01:08:28;88103.997802734;;;5.7;40.1
65606;BME280;52276;48.906;2.384;2023-02-28T01:09:13;88103.997802734;;;5.7;40
65606;BME280;52276;48.906;2.384;2023-02-28T01:10:13;88103.997802734;;;5.7;40
65606;BME280;52276;48.906;2.384;2023-02-28T01:11:14;88103.997802734;;;5.7;40
65606;BME280;52276;48.906;2.384;2023-02-28T01:12:13;88103.997802734;;;5.7;40
65606;BME280;52276;48.906;2.384;2023-02-28T01:13:13;88103.997802734;;;5.7;40.1
65606;BME280;52276;48.906;2.384;2023-02-28T01:14:13;88103.997802734;;;5.7;40.1
65606;BME280;52276;48.906;2.384;2023-02-28T01:15:13;88103.997802734;;;5.6;40
65606;BME280;52276;48.906;2.384;2023-02-28T01:16:13;88103.997802734;;;5.7;40.1
65606;BME280;52276;48.906;2.384;2023-02-28T01:17:13;88103.997802734;;;5.7;40.1
65606;BME280;52276;48.906;2.384;2023-02-28T01:18:13;88103.997802734;;;5.7;40.1
65606;BME280;52276;48.906;2.384;2023-02-28T01:19:13;88103.997802734;;;5.6;40.1
65606;BME280;52276;48.906;2.384;2023-02-28T01:20:13;88103.997802734;;;5.7;40.1
65606;BME280;52276;48.906;2.384;2023-02-28T01:21:13;88103.997802734;;;5.6;40
65606;BME280;52276;48.906;2.384;2023-02-28T01:22:13;88103.997802734;;;5.6;40.1
65606;BME280;52276;48.906;2.384;2023-02-28T01:23:13;88103.997802734;;;5.6;40.1
65606;BME280;52276;48.906;2.384;2023-02-28T01:24:13;88103.997802734;;;5.6;40.2
65606;BME280;52276;48.906;2.384;2023-02-28T01:25:13;88103.997802734;;;5.6;40.5
65606;BME280;52276;48.906;2.384;2023-02-28T01:26:14;88103.997802734;;;5.6;40.2
65606;BME280;52276;48.906;2.384;2023-02-28T01:27:13;88103.997802734;;;5.6;40.1
65606;BME280;52276;48.906;2.384;2023-02-28T01:28:13;88103.997802734;;;5.6;40.1
65606;BME280;52276;48.906;2.384;2023-02-28T01:29:13;88103.997802734;;;5.6;40.2
65606;BME280;52276;48.906;2.384;2023-02-28T01:30:13;88103.997802734;;;5.6;40.2
65606;BME280;52276;48.906;2.384;2023-02-28T01:31:13;88103.997802734;;;5.6;40.3
65606;BME280;52276;48.906;2.384;2023-02-28T01:32:13;88103.997802734;;;5.5;40.3
65606;BME280;52276;48.906;2.384;2023-02-28T01:33:13;88103.997802734;;;5.6;40.3
65606;BME280;52276;48.906;2.384;2023-02-28T01:34:13;88103.997802734;;;5.5;40.2
65606;BME280;52276;48.906;2.384;2023-02-28T01:35:13;88103.997802734;;;5.5;40.2
65606;BME280;52276;48.906;2.384;2023-02-28T01:36:14;88103.997802734;;;5.5;40.2
65606;BME280;52276;48.906;2.384;2023-02-28T01:37:13;88103.997802734;;;5.5;40.2
65606;BME280;52276;48.906;2.384;2023-02-28T01:38:13;88103.997802734;;;5.5;40.3
65606;BME280;52276;48.906;2.384;2023-02-28T01:39:13;88103.997802734;;;5.5;40.2
65606;BME280;52276;48.906;2.384;2023-02-28T01:40:13;88103.997802734;;;5.5;40.3
65606;BME280;52276;48.906;2.384;2023-02-28T01:41:15;88103.997802734;;;5.5;40.4
65606;BME280;52276;48.906;2.384;2023-02-28T01:42:13;88103.997802734;;;5.5;40.4
65606;BME280;52276;48.906;2.384;2023-02-28T01:43:16;88103.997802734;;;5.5;40.4
65606;BME280;52276;48.906;2.384;2023-02-28T01:45:17;88103.997802734;;;5.5;40.5
65606;BME280;52276;48.906;2.384;2023-02-28T01:46:14;88103.997802734;;;5.5;40.5
65606;BME280;52276;48.906;2.384;2023-02-28T01:47:13;88103.997802734;;;5.5;40.4
65606;BME280;52276;48.906;2.384;2023-02-28T01:48:13;88103.997802734;;;5.5;40.5
65606;BME280;52276;48.906;2.384;2023-02-28T01:49:14;88103.997802734;;;5.5;40.6
65606;BME280;52276;48.906;2.384;2023-02-28T01:50:14;88103.997802734;;;5.4;40.5
65606;BME280;52276;48.906;2.384;2023-02-28T01:51:14;88103.997802734;;;5.4;40.5
65606;BME280;52276;48.906;2.384;2023-02-28T01:52:13;88103.997802734;;;5.4;40.5
65606;BME280;52276;48.906;2.384;2023-02-28T01:53:14;88103.997802734;;;5.4;40.6
65606;BME280;52276;48.906;2.384;2023-02-28T01:54:15;88103.997802734;;;5.4;40.5
65606;BME280;52276;48.906;2.384;2023-02-28T01:55:13;88103.997802734;;;5.4;40.6
65606;BME280;52276;48.906;2.384;2023-02-28T01:56:13;88103.997802734;;;5.4;40.6
65606;BME280;52276;48.906;2.384;2023-02-28T01:57:14;88103.997802734;;;5.4;40.6
65606;BME280;52276;48.906;2.384;2023-02-28T01:58:13;88103.997802734;;;5.4;40.7
65606;BME280;52276;48.906;2.384;2023-02-28T01:59:14;88103.997802734;;;5.4;40.7
65606;BME280;52276;48.906;2.384;2023-02-28T02:00:14;88103.997802734;;;5.4;40.6
65606;BME280;52276;48.906;2.384;2023-02-28T02:01:13;88103.997802734;;;5.4;40.7
65606;BME280;52276;48.906;2.384;2023-02-28T02:02:13;88103.997802734;;;5.4;40.7
65606;BME280;52276;48.906;2.384;2023-02-28T02:03:13;88103.997802734;;;5.4;40.7
65606;BME280;52276;48.906;2.384;2023-02-28T02:04:13;88103.997802734;;;5.4;40.8
65606;BME280;52276;48.906;2.384;2023-02-28T02:05:14;88103.997802734;;;5.4;41
65606;BME280;52276;48.906;2.384;2023-02-28T02:06:13;88103.997802734;;;5.3;39.4
65606;BME280;52276;48.906;2.384;2023-02-28T02:07:13;88103.997802734;;;5.3;40.8
65606;BME280;52276;48.906;2.384;2023-02-28T02:08:16;88103.997802734;;;5.3;40.8
65606;BME280;52276;48.906;2.384;2023-02-28T02:09:13;88103.997802734;;;5.3;40.9
65606;BME280;52276;48.906;2.384;2023-02-28T02:10:14;88103.997802734;;;5.3;40.9
65606;BME280;52276;48.906;2.384;2023-02-28T02:11:13;88103.997802734;;;5.3;39.6
65606;BME280;52276;48.906;2.384;2023-02-28T02:12:15;88103.997802734;;;5.3;40.8
65606;BME280;52276;48.906;2.384;2023-02-28T02:13:18;88103.997802734;;;5.3;40.9
65606;BME280;52276;48.906;2.384;2023-02-28T02:14:18;88103.997802734;;;5.3;40.9
65606;BME280;52276;48.906;2.384;2023-02-28T02:15:14;88103.997802734;;;5.3;41.1
65606;BME280;52276;48.906;2.384;2023-02-28T02:16:17;88103.997802734;;;5.3;41
65606;BME280;52276;48.906;2.384;2023-02-28T02:17:16;88103.997802734;;;5.3;41.1
65606;BME280;52276;48.906;2.384;2023-02-28T02:18:15;88103.997802734;;;5.3;41.1
65606;BME280;52276;48.906;2.384;2023-02-28T02:19:16;88103.997802734;;;5.2;41
65606;BME280;52276;48.906;2.384;2023-02-28T02:20:35;88103.997802734;;;5.2;41
65606;BME280;52276;48.906;2.384;2023-02-28T02:21:35;88103.997802734;;;5.2;41.1
65606;BME280;52276;48.906;2.384;2023-02-28T02:22:21;88103.997802734;;;5.2;41.1
65606;BME280;52276;48.906;2.384;2023-02-28T02:23:20;88103.997802734;;;5.2;41.1
65606;BME280;52276;48.906;2.384;2023-02-28T02:24:20;88103.997802734;;;5.2;41.2
65606;BME280;52276;48.906;2.384;2023-02-28T02:25:17;88103.997802734;;;5.2;41.2
65606;BME280;52276;48.906;2.384;2023-02-28T02:26:19;88103.997802734;;;5.2;41.1
65606;BME280;52276;48.906;2.384;2023-02-28T02:27:16;88103.997802734;;;5.2;41.2
65606;BME280;52276;48.906;2.384;2023-02-28T02:28:22;88103.997802734;;;5.2;41.2
65606;BME280;52276;48.906;2.384;2023-02-28T02:29:21;88103.997802734;;;5.2;41.2
65606;BME280;52276;48.906;2.384;2023-02-28T02:30:26;88103.997802734;;;5.1;41.3
65606;BME280;52276;48.906;2.384;2023-02-28T02:31:18;88103.997802734;;;5.1;41.4
65606;BME280;52276;48.906;2.384;2023-02-28T02:32:20;88103.997802734;;;5.1;41.3
65606;BME280;52276;48.906;2.384;2023-02-28T02:33:19;88103.997802734;;;5.1;41.2
65606;BME280;52276;48.906;2.384;2023-02-28T02:34:33;88103.997802734;;;5.1;41.2
65606;BME280;52276;48.906;2.384;2023-02-28T02:35:13;88103.997802734;;;5.1;41
65606;BME280;52276;48.906;2.384;2023-02-28T02:36:13;88103.997802734;;;5.1;41.3
65606;BME280;52276;48.906;2.384;2023-02-28T02:37:15;88103.997802734;;;5.1;41.3
65606;BME280;52276;48.906;2.384;2023-02-28T02:38:15;88103.997802734;;;5.1;41.4
65606;BME280;52276;48.906;2.384;2023-02-28T02:39:13;88103.997802734;;;5.1;41.2
65606;BME280;52276;48.906;2.384;2023-02-28T02:40:14;88103.997802734;;;5.1;41.2
65606;BME280;52276;48.906;2.384;2023-02-28T02:41:14;88103.997802734;;;5;41.2
65606;BME280;52276;48.906;2.384;2023-02-28T02:42:14;88103.997802734;;;5;41.2
65606;BME280;52276;48.906;2.384;2023-02-28T02:43:13;88103.997802734;;;5.1;41.3
65606;BME280;52276;48.906;2.384;2023-02-28T02:44:15;88103.997802734;;;5;41.3
65606;BME280;52276;48.906;2.384;2023-02-28T02:45:14;88103.997802734;;;5;41.4
65606;BME280;52276;48.906;2.384;2023-02-28T02:46:14;88103.997802734;;;5;41.3
65606;BME280;52276;48.906;2.384;2023-02-28T02:47:13;88103.997802734;;;5;41.5
65606;BME280;52276;48.906;2.384;2023-02-28T02:48:14;88103.997802734;;;5;41.4
65606;BME280;52276;48.906;2.384;2023-02-28T02:49:15;88103.997802734;;;5;41.4
65606;BME280;52276;48.906;2.384;2023-02-28T02:50:14;88103.997802734;;;5;41.4
65606;BME280;52276;48.906;2.384;2023-02-28T02:51:14;88103.997802734;;;5;41.4
65606;BME280;52276;48.906;2.384;2023-02-28T02:52:14;88103.997802734;;;5;41.3
65606;BME280;52276;48.906;2.384;2023-02-28T02:53:13;88103.997802734;;;5;41.5
65606;BME280;52276;48.906;2.384;2023-02-28T02:54:14;88103.997802734;;;5;41.4
65606;BME280;52276;48.906;2.384;2023-02-28T02:55:15;88103.997802734;;;5;41.4
65606;BME280;52276;48.906;2.384;2023-02-28T02:56:13;88103.997802734;;;5;41.4
65606;BME280;52276;48.906;2.384;2023-02-28T02:57:14;88103.997802734;;;5;41.4
65606;BME280;52276;48.906;2.384;2023-02-28T02:58:14;88103.997802734;;;5;41.4
65606;BME280;52276;48.906;2.384;2023-02-28T02:59:14;88103.997802734;;;4.9;41.5
65606;BME280;52276;48.906;2.384;2023-02-28T03:00:13;88103.997802734;;;4.9;41.4
65606;BME280;52276;48.906;2.384;2023-02-28T03:01:14;88103.997802734;;;4.9;41.4
65606;BME280;52276;48.906;2.384;2023-02-28T03:02:13;88103.997802734;;;4.9;41.4
65606;BME280;52276;48.906;2.384;2023-02-28T03:03:13;88103.997802734;;;4.9;41.5
65606;BME280;52276;48.906;2.384;2023-02-28T03:04:16;88103.997802734;;;4.9;41.4
65606;BME280;52276;48.906;2.384;2023-02-28T03:05:15;88103.997802734;;;4.9;41.4
65606;BME280;52276;48.906;2.384;2023-02-28T03:06:14;88103.997802734;;;4.9;41.4
65606;BME280;52276;48.906;2.384;2023-02-28T03:07:13;88103.997802734;;;4.9;41.5
65606;BME280;52276;48.906;2.384;2023-02-28T03:08:13;88103.997802734;;;4.9;41.4
65606;BME280;52276;48.906;2.384;2023-02-28T03:09:13;88103.997802734;;;4.9;41.5
65606;BME280;52276;48.906;2.384;2023-02-28T03:10:31;88103.997802734;;;4.9;41.5
65606;BME280;52276;48.906;2.384;2023-02-28T03:11:13;88103.997802734;;;4.9;41.4
65606;BME280;52276;48.906;2.384;2023-02-28T03:12:13;88103.997802734;;;4.9;41.5
65606;BME280;52276;48.906;2.384;2023-02-28T03:13:20;88103.997802734;;;4.9;41.5
65606;BME280;52276;48.906;2.384;2023-02-28T03:14:18;88103.997802734;;;4.8;41.4
65606;BME280;52276;48.906;2.384;2023-02-28T03:15:15;88103.997802734;;;4.9;41.5
65606;BME280;52276;48.906;2.384;2023-02-28T03:16:22;88103.997802734;;;4.9;41.5
65606;BME280;52276;48.906;2.384;2023-02-28T03:17:18;88103.997802734;;;4.9;41.6
65606;BME280;52276;48.906;2.384;2023-02-28T03:18:14;88103.997802734;;;4.8;41.4
65606;BME280;52276;48.906;2.384;2023-02-28T03:19:25;88103.997802734;;;4.8;41.4
65606;BME280;52276;48.906;2.384;2023-02-28T03:20:15;88103.997802734;;;4.8;41.4
65606;BME280;52276;48.906;2.384;2023-02-28T03:21:16;88103.997802734;;;4.9;41.5
65606;BME280;52276;48.906;2.384;2023-02-28T03:22:14;88103.997802734;;;4.8;41.5
65606;BME280;52276;48.906;2.384;2023-02-28T03:23:15;88103.997802734;;;4.8;41.5
65606;BME280;52276;48.906;2.384;2023-02-28T03:24:15;88103.997802734;;;4.8;41.5
65606;BME280;52276;48.906;2.384;2023-02-28T03:25:16;88103.997802734;;;4.8;41.5
65606;BME280;52276;48.906;2.384;2023-02-28T03:26:16;88103.997802734;;;4.8;41.5
65606;BME280;52276;48.906;2.384;2023-02-28T03:27:15;88103.997802734;;;4.8;41.5
65606;BME280;52276;48.906;2.384;2023-02-28T03:28:15;88103.997802734;;;4.8;41.5
65606;BME280;52276;48.906;2.384;2023-02-28T03:29:15;88103.997802734;;;4.8;41.5
65606;BME280;52276;48.906;2.384;2023-02-28T03:30:14;88103.997802734;;;4.8;41.4
65606;BME280;52276;48.906;2.384;2023-02-28T03:31:15;88103.997802734;;;4.8;41.4
65606;BME280;52276;48.906;2.384;2023-02-28T03:32:14;88103.997802734;;;4.8;41.5
65606;BME280;52276;48.906;2.384;2023-02-28T03:33:14;88103.997802734;;;4.8;41.5
65606;BME280;52276;48.906;2.384;2023-02-28T03:34:14;88103.997802734;;;4.7;41.5
65606;BME280;52276;48.906;2.384;2023-02-28T03:35:14;88103.997802734;;;4.8;41.5
65606;BME280;52276;48.906;2.384;2023-02-28T03:36:30;88103.997802734;;;4.8;41.5
65606;BME280;52276;48.906;2.384;2023-02-28T03:37:15;88103.997802734;;;4.8;41.5
65606;BME280;52276;48.906;2.384;2023-02-28T03:38:14;88103.997802734;;;4.8;41.4
65606;BME280;52276;48.906;2.384;2023-02-28T03:39:14;88103.997802734;;;4.8;41.5
65606;BME280;52276;48.906;2.384;2023-02-28T03:40:14;88103.997802734;;;4.8;41.5
65606;BME280;52276;48.906;2.384;2023-02-28T03:41:14;88103.997802734;;;4.7;41.5
65606;BME280;52276;48.906;2.384;2023-02-28T03:42:14;88103.997802734;;;4.7;41.5
65606;BME280;52276;48.906;2.384;2023-02-28T03:43:15;88103.997802734;;;4.7;41.5
65606;BME280;52276;48.906;2.384;2023-02-28T03:44:14;88103.997802734;;;4.7;41.5
65606;BME280;52276;48.906;2.384;2023-02-28T03:45:14;88103.997802734;;;4.7;41.5
65606;BME280;52276;48.906;2.384;2023-02-28T03:46:14;88103.997802734;;;4.7;41.5
65606;BME280;52276;48.906;2.384;2023-02-28T03:47:14;88103.997802734;;;4.7;41.5
65606;BME280;52276;48.906;2.384;2023-02-28T03:48:15;88103.997802734;;;4.7;41.5
65606;BME280;52276;48.906;2.384;2023-02-28T03:49:15;88103.997802734;;;4.7;41.5
65606;BME280;52276;48.906;2.384;2023-02-28T03:50:14;88103.997802734;;;4.7;41.5
65606;BME280;52276;48.906;2.384;2023-02-28T03:51:15;88103.997802734;;;4.7;41.5
65606;BME280;52276;48.906;2.384;2023-02-28T03:52:13;88103.997802734;;;4.7;41.5
65606;BME280;52276;48.906;2.384;2023-02-28T03:53:14;88103.997802734;;;4.7;41.5
65606;BME280;52276;48.906;2.384;2023-02-28T03:54:15;88103.997802734;;;4.7;41.5
65606;BME280;52276;48.906;2.384;2023-02-28T03:55:14;88103.997802734;;;4.7;41.5
65606;BME280;52276;48.906;2.384;2023-02-28T03:56:14;88103.997802734;;;4.7;41.5
65606;BME280;52276;48.906;2.384;2023-02-28T03:57:15;88103.997802734;;;4.7;41.4
65606;BME280;52276;48.906;2.384;2023-02-28T03:58:15;88103.997802734;;;4.7;41.4
65606;BME280;52276;48.906;2.384;2023-02-28T03:59:14;88103.997802734;;;4.7;41.5
65606;BME280;52276;48.906;2.384;2023-02-28T04:00:14;88103.997802734;;;4.6;41.4
65606;BME280;52276;48.906;2.384;2023-02-28T04:01:15;88103.997802734;;;4.6;41.4
65606;BME280;52276;48.906;2.384;2023-02-28T04:02:13;88103.997802734;;;4.6;41.4
65606;BME280;52276;48.906;2.384;2023-02-28T04:03:13;88103.997802734;;;4.7;41.5
65606;BME280;52276;48.906;2.384;2023-02-28T04:04:14;88103.997802734;;;4.6;41.3
65606;BME280;52276;48.906;2.384;2023-02-28T04:05:13;88103.997802734;;;4.7;41.5
65606;BME280;52276;48.906;2.384;2023-02-28T04:06:15;88103.997802734;;;4.6;41.4
65606;BME280;52276;48.906;2.384;2023-02-28T04:07:14;88103.997802734;;;4.7;41.5
65606;BME280;52276;48.906;2.384;2023-02-28T04:08:13;88103.997802734;;;4.6;41.4
65606;BME280;52276;48.906;2.384;2023-02-28T04:09:14;88103.997802734;;;4.6;41.4
65606;BME280;52276;48.906;2.384;2023-02-28T04:10:14;88103.997802734;;;4.6;41.3
65606;BME280;52276;48.906;2.384;2023-02-28T04:11:17;88103.997802734;;;4.6;41.3
65606;BME280;52276;48.906;2.384;2023-02-28T04:12:13;88103.997802734;;;4.6;41.4
65606;BME280;52276;48.906;2.384;2023-02-28T04:13:13;88103.997802734;;;4.6;41.4
65606;BME280;52276;48.906;2.384;2023-02-28T04:14:13;88103.997802734;;;4.6;41.4
65606;BME280;52276;48.906;2.384;2023-02-28T04:15:13;88103.997802734;;;4.6;41.4
65606;BME280;52276;48.906;2.384;2023-02-28T04:16:13;88103.997802734;;;4.6;41.4
65606;BME280;52276;48.906;2.384;2023-02-28T04:17:13;88103.997802734;;;4.6;41.4
65606;BME280;52276;48.906;2.384;2023-02-28T04:18:13;88103.997802734;;;4.6;41.5
65606;BME280;52276;48.906;2.384;2023-02-28T04:19:14;88103.997802734;;;4.6;41.5
65606;BME280;52276;48.906;2.384;2023-02-28T04:20:13;88103.997802734;;;4.5;41.4
65606;BME280;52276;48.906;2.384;2023-02-28T04:21:13;88103.997802734;;;4.6;41.5
65606;BME280;52276;48.906;2.384;2023-02-28T04:22:13;88103.997802734;;;4.6;41.5
65606;BME280;52276;48.906;2.384;2023-02-28T04:23:13;88103.997802734;;;4.6;41.4
65606;BME280;52276;48.906;2.384;2023-02-28T04:24:14;88103.997802734;;;4.5;41.5
65606;BME280;52276;48.906;2.384;2023-02-28T04:25:13;88103.997802734;;;4.5;41.5
65606;BME280;52276;48.906;2.384;2023-02-28T04:26:13;88103.997802734;;;4.6;41.5
65606;BME280;52276;48.906;2.384;2023-02-28T04:27:14;88103.997802734;;;4.5;41.5
65606;BME280;52276;48.906;2.384;2023-02-28T04:28:13;88103.997802734;;;4.5;41.5
65606;BME280;52276;48.906;2.384;2023-02-28T04:29:14;88103.997802734;;;4.5;41.5
65606;BME280;52276;48.906;2.384;2023-02-28T04:30:14;88103.997802734;;;4.5;41.5
65606;BME280;52276;48.906;2.384;2023-02-28T04:31:13;88103.997802734;;;4.5;41.5
65606;BME280;52276;48.906;2.384;2023-02-28T04:32:13;88103.997802734;;;4.5;41.5
65606;BME280;52276;48.906;2.384;2023-02-28T04:33:13;88103.997802734;;;4.5;41.6
65606;BME280;52276;48.906;2.384;2023-02-28T04:34:13;88103.997802734;;;4.5;41.6
65606;BME280;52276;48.906;2.384;2023-02-28T04:35:14;88103.997802734;;;4.5;41.6
65606;BME280;52276;48.906;2.384;2023-02-28T04:36:13;88103.997802734;;;4.5;41.6
65606;BME280;52276;48.906;2.384;2023-02-28T04:37:13;88103.997802734;;;4.5;41.6
65606;BME280;52276;48.906;2.384;2023-02-28T04:38:13;88103.997802734;;;4.5;41.6
65606;BME280;52276;48.906;2.384;2023-02-28T04:39:13;88103.997802734;;;4.5;41.7
65606;BME280;52276;48.906;2.384;2023-02-28T04:40:14;88103.997802734;;;4.5;41.6
65606;BME280;52276;48.906;2.384;2023-02-28T04:41:14;88103.997802734;;;4.5;41.6
65606;BME280;52276;48.906;2.384;2023-02-28T04:42:14;88103.997802734;;;4.5;41.7
65606;BME280;52276;48.906;2.384;2023-02-28T04:43:13;88103.997802734;;;4.4;41.7
65606;BME280;52276;48.906;2.384;2023-02-28T04:44:14;88103.997802734;;;4.5;41.7
65606;BME280;52276;48.906;2.384;2023-02-28T04:45:13;88103.997802734;;;4.5;41.9
65606;BME280;52276;48.906;2.384;2023-02-28T04:46:14;88103.997802734;;;4.4;40.5
65606;BME280;52276;48.906;2.384;2023-02-28T04:47:13;88103.997802734;;;4.4;41.9
65606;BME280;52276;48.906;2.384;2023-02-28T04:48:13;88103.997802734;;;4.4;41.7
65606;BME280;52276;48.906;2.384;2023-02-28T04:49:14;88103.997802734;;;4.4;41.6
65606;BME280;52276;48.906;2.384;2023-02-28T04:50:14;88103.997802734;;;4.4;41.7
65606;BME280;52276;48.906;2.384;2023-02-28T04:51:14;88103.997802734;;;4.4;41.8
65606;BME280;52276;48.906;2.384;2023-02-28T04:52:13;88103.997802734;;;4.4;41.8
65606;BME280;52276;48.906;2.384;2023-02-28T04:53:14;88103.997802734;;;4.4;41.7
65606;BME280;52276;48.906;2.384;2023-02-28T04:54:14;88103.997802734;;;4.4;41.8
65606;BME280;52276;48.906;2.384;2023-02-28T04:55:14;88103.997802734;;;4.4;41.9
65606;BME280;52276;48.906;2.384;2023-02-28T04:56:14;88103.997802734;;;4.4;41.7
65606;BME280;52276;48.906;2.384;2023-02-28T04:57:14;88103.997802734;;;4.4;41.8
65606;BME280;52276;48.906;2.384;2023-02-28T04:58:14;88103.997802734;;;4.4;41.8
65606;BME280;52276;48.906;2.384;2023-02-28T04:59:14;88103.997802734;;;4.4;39.7
65606;BME280;52276;48.906;2.384;2023-02-28T05:00:14;88103.997802734;;;4.4;41.8
65606;BME280;52276;48.906;2.384;2023-02-28T05:01:16;88103.997802734;;;4.4;42
65606;BME280;52276;48.906;2.384;2023-02-28T05:02:14;88103.997802734;;;4.4;41.8
65606;BME280;52276;48.906;2.384;2023-02-28T05:03:14;88103.997802734;;;4.4;41.7